Mimmo Ievoli — ICLN — position and weather

sailwx.info

Track history (hours):
 
Tides and Currents Weather Stations Pressure Air Temp Water Temp Dewpoint Dewpoint Depression Visibility Wind Speed Wind Dir Waves Ship Positions

Mimmo Ievoli

Last reported at 2017-Sep-18 19:01 UTC. Time now 2017-Sep-19 11:47 UTC.
Position N 37°29' W 000°59'.

Length 125 m; draft 6.7 m.

Type: Ship (hazmat cat C). MMSI: 247253200.

Date/timePositionNaut miles runAvg speedWind from/ knotsBaromVisibWave heightAir tempDewpointWater temp
2017-Sep-18 19:01N 37°29' W 000°59'0 6.7
2017-Sep-18 18:58N 37°29' W 000°59'12 4.5
2017-Sep-18 16:25N 37°26' W 000°45'3 7.1
2017-Sep-18 15:57N 37°25' W 000°41'3 7.1
2017-Sep-18 15:29N 37°25' W 000°37'611.6
2017-Sep-18 14:59N 37°25' W 000°29'913.7
2017-Sep-18 14:18N 37°26' W 000°17'55813.4
2017-Sep-16 20:30N 37°21' E 011°25'713.5
2017-Sep-16 20:00N 37°15' E 011°29'713.5
2017-Sep-16 19:30N 37°09' E 011°32'713.4
2017-Sep-16 19:00N 37°03' E 011°36'1213.7
2017-Sep-16 18:08N 36°53' E 011°44'214.2
2017-Sep-16 18:00N 36°51' E 011°45'814.1
2017-Sep-16 17:28N 36°45' E 011°50'613.9
2017-Sep-16 17:00N 36°39' E 011°53'714.0
2017-Sep-16 16:30N 36°32' E 011°55'714.0
2017-Sep-16 16:00N 36°25' E 011°57'714.0
2017-Sep-16 15:30N 36°19' E 012°00'714.1
2017-Sep-16 15:00N 36°12' E 012°01'713.9
2017-Sep-16 14:30N 36°05' E 012°01'713.7
2017-Sep-16 14:00N 35°58' E 012°02'713.6
2017-Sep-16 13:30N 35°51' E 012°03'713.7
2017-Sep-16 13:00N 35°44' E 012°04'713.9
2017-Sep-16 12:30N 35°37' E 012°04'714.0
2017-Sep-16 12:00N 35°30' E 012°05'714.1
2017-Sep-16 11:30N 35°23' E 012°06'714.1
2017-Sep-16 11:00N 35°16' E 012°07'713.5
2017-Sep-16 10:30N 35°10' E 012°07'713.5
2017-Sep-16 10:00N 35°03' E 012°08'713.5
2017-Sep-16 09:30N 34°56' E 012°09'713.9
2017-Sep-16 09:00N 34°49' E 012°09'612.3
2017-Sep-16 08:30N 34°44' E 012°06'714.2
2017-Sep-16 08:00N 34°41' E 011°58'814.2
2017-Sep-16 07:28N 34°38' E 011°50'813.7
2017-Sep-16 06:52N 34°34' E 011°41'514.1
2017-Sep-16 06:30N 34°32' E 011°35'2214.3
2017-Sep-16 05:00N 34°21' E 011°12'714.0
2017-Sep-16 04:30N 34°20' E 011°04'714.5
2017-Sep-16 04:00N 34°17' E 010°56'714.5
2017-Sep-16 03:30N 34°14' E 010°48'714.3
2017-Sep-16 03:00N 34°11' E 010°40'714.4
2017-Sep-16 02:30N 34°08' E 010°32'714.0
2017-Sep-16 02:01N 34°05' E 010°25'813.9
2017-Sep-16 01:28N 34°08' E 010°16'47 2.4
2017-Sep-15 05:59N 34°22' E 011°11'612.9
2017-Sep-15 05:30N 34°25' E 011°18'813.5
2017-Sep-15 04:55N 34°28' E 011°27'613.4
2017-Sep-15 04:30N 34°30' E 011°33'713.3
2017-Sep-15 04:00N 34°33' E 011°40'713.6
2017-Sep-15 03:30N 34°36' E 011°47'613.1
2017-Sep-15 03:00N 34°39' E 011°54'713.2
2017-Sep-15 02:30N 34°42' E 012°02'612.9
2017-Sep-15 02:00N 34°45' E 012°09'612.9
2017-Sep-15 01:30N 34°51' E 012°08'713.3
2017-Sep-15 01:00N 34°58' E 012°07'713.4
2017-Sep-15 00:30N 35°04' E 012°06'713.4
2017-Sep-15 00:00N 35°11' E 012°05'713.5
2017-Sep-14 23:30N 35°18' E 012°04'713.4
2017-Sep-14 23:00N 35°24' E 012°03'713.3
2017-Sep-14 22:30N 35°31' E 012°01'713.4
2017-Sep-14 22:00N 35°38' E 011°60'713.5
2017-Sep-14 21:30N 35°44' E 011°59'713.5
2017-Sep-14 21:00N 35°51' E 011°58'713.6
2017-Sep-14 20:30N 35°58' E 011°56'713.7
2017-Sep-14 20:00N 36°04' E 011°55'713.5
2017-Sep-14 19:30N 36°11' E 011°53'713.4
2017-Sep-14 19:01N 36°18' E 011°52'713.4
2017-Sep-14 18:30N 36°24' E 011°51'713.5
2017-Sep-14 18:00N 36°31' E 011°50'713.4
2017-Sep-14 17:30N 36°38' E 011°49'713.5
2017-Sep-14 17:00N 36°44' E 011°48'813.2
2017-Sep-14 16:25N 36°52' E 011°47'513.2
2017-Sep-14 16:00N 36°57' E 011°47'261 8.0
2017-Sep-13 07:37N 40°50' E 014°17'0 1.2
2017-Sep-13 07:28N 40°50' E 014°17'2 4.7
2017-Sep-13 06:59N 40°48' E 014°17'5 9.4
2017-Sep-13 06:30N 40°44' E 014°14'510.0
2017-Sep-13 06:00N 40°41' E 014°09'5 9.9
2017-Sep-13 05:30N 40°38' E 014°04'248 9.7
2017-Sep-12 03:51N 43°03' E 009°34'411.0
2017-Sep-12 03:30N 43°06' E 009°33'5 9.7
2017-Sep-12 03:00N 43°11' E 009°32'5 9.6
2017-Sep-12 02:29N 43°16' E 009°30'510.9
2017-Sep-12 02:00N 43°21' E 009°27'611.1
2017-Sep-12 01:30N 43°26' E 009°24'510.9
2017-Sep-12 01:00N 43°31' E 009°22'611.5
2017-Sep-12 00:30N 43°36' E 009°19'612.2
2017-Sep-12 00:00N 43°42' E 009°16'612.4
2017-Sep-11 23:30N 43°48' E 009°13'612.7
2017-Sep-11 23:00N 43°54' E 009°10'612.6
2017-Sep-11 22:30N 44°00' E 009°08'612.8
2017-Sep-11 22:00N 44°06' E 009°05'713.0
2017-Sep-11 21:30N 44°12' E 009°02'612.9
2017-Sep-11 21:00N 44°18' E 008°59'611.2
2017-Sep-11 20:30N 44°24' E 008°56'2 3.0
2017-Sep-11 19:56N 44°24' E 008°54'0 0.0
2017-Sep-11 19:26N 44°24' E 008°54'0 0.0
2017-Sep-11 18:56N 44°24' E 008°54'0 0.0
2017-Sep-11 18:26N 44°24' E 008°54'0 0.0
2017-Sep-11 17:56N 44°24' E 008°54'0 0.0
2017-Sep-11 17:26N 44°24' E 008°54'0 0.0
2017-Sep-11 16:44N 44°24' E 008°54'0 0.0
2017-Sep-11 16:26N 44°24' E 008°54'0 0.0
2017-Sep-11 15:56N 44°24' E 008°54'0 0.0
2017-Sep-11 15:26N 44°24' E 008°54'0 0.0
2017-Sep-11 14:44N 44°24' E 008°54'0 0.0
2017-Sep-11 14:20N 44°24' E 008°54'0 0.0
2017-Sep-11 13:56N 44°24' E 008°54'0 0.0
2017-Sep-11 13:20N 44°24' E 008°54'0 0.0
2017-Sep-11 12:50N 44°24' E 008°54'0 0.0
2017-Sep-11 12:20N 44°24' E 008°54'0 0.0
2017-Sep-11 11:56N 44°24' E 008°54'0 0.0
2017-Sep-11 11:26N 44°24' E 008°54'0 0.0
2017-Sep-11 10:50N 44°24' E 008°54'0 0.0
2017-Sep-11 10:20N 44°24' E 008°54'0 0.0
2017-Sep-11 09:50N 44°24' E 008°54'0 0.0
2017-Sep-11 09:30N 44°24' E 008°54'2 3.9
2017-Sep-11 09:00N 44°23' E 008°56'2 4.3
2017-Sep-11 08:30N 44°22' E 008°58'1 1.2
2017-Sep-11 08:00N 44°21' E 008°59'3 5.2
2017-Sep-11 07:30N 44°19' E 009°01'5 9.1
2017-Sep-11 07:00N 44°17' E 008°56'611.8
2017-Sep-11 06:30N 44°12' E 008°51'612.2
2017-Sep-11 06:00N 44°08' E 008°45'613.0
2017-Sep-11 05:30N 44°03' E 008°38'612.8
2017-Sep-11 05:00N 43°59' E 008°32'612.9
2017-Sep-11 04:30N 43°54' E 008°26'713.0
2017-Sep-11 03:59N 43°50' E 008°19'4213.2
2017-Sep-11 00:46N 43°21' E 007°36'813.8
2017-Sep-11 00:11N 43°16' E 007°27'513.7
2017-Sep-10 23:50N 43°13' E 007°22'513.6
2017-Sep-10 23:28N 43°10' E 007°17'613.7
2017-Sep-10 23:00N 43°06' E 007°10'7211.9
2017-Sep-10 16:56N 42°51' E 005°33'612.6
2017-Sep-10 16:30N 42°53' E 005°26'612.8
2017-Sep-10 16:00N 42°55' E 005°18'612.8
2017-Sep-10 15:30N 42°57' E 005°10'713.1
2017-Sep-10 14:59N 42°60' E 005°01'1613.1
2017-Sep-10 13:45N 43°05' E 004°41'712.9
2017-Sep-10 13:12N 43°08' E 004°32'313.0
2017-Sep-10 12:59N 43°09' E 004°28'813.3
2017-Sep-10 12:25N 43°11' E 004°18'512.9
2017-Sep-10 12:00N 43°11' E 004°11'713.5
2017-Sep-10 11:30N 43°09' E 004°02'713.2
2017-Sep-10 10:59N 43°07' E 003°53'35 0.9
2017-Sep-08 21:41N 42°41' E 004°26'313.7
2017-Sep-08 21:27N 42°44' E 004°29'613.6
2017-Sep-08 21:01N 42°48' E 004°34'713.4
2017-Sep-08 20:31N 42°53' E 004°40'713.1
2017-Sep-08 20:01N 42°58' E 004°46'713.3
2017-Sep-08 19:30N 43°03' E 004°52'  
Track history (hours):
 
Tides and Currents Weather Stations Pressure Air Temp Water Temp Dewpoint Dewpoint Depression Visibility Wind Speed Wind Dir Waves Ship Positions

Mimmo Ievoli

Last reported at 2017-Sep-18 19:01 UTC. Time now 2017-Sep-19 11:47 UTC.
Position N 37°29' W 000°59'.

Length 125 m; draft 6.7 m.

Type: Ship (hazmat cat C). MMSI: 247253200.

Date/timePositionNaut miles runAvg speedWind from/ knotsBaromVisibWave heightAir tempDewpointWater temp
2017-Sep-18 19:01N 37°29' W 000°59'0 6.7
2017-Sep-18 18:58N 37°29' W 000°59'12 4.5
2017-Sep-18 16:25N 37°26' W 000°45'3 7.1
2017-Sep-18 15:57N 37°25' W 000°41'3 7.1
2017-Sep-18 15:29N 37°25' W 000°37'611.6
2017-Sep-18 14:59N 37°25' W 000°29'913.7
2017-Sep-18 14:18N 37°26' W 000°17'55813.4
2017-Sep-16 20:30N 37°21' E 011°25'713.5
2017-Sep-16 20:00N 37°15' E 011°29'713.5
2017-Sep-16 19:30N 37°09' E 011°32'713.4
2017-Sep-16 19:00N 37°03' E 011°36'1213.7
2017-Sep-16 18:08N 36°53' E 011°44'214.2
2017-Sep-16 18:00N 36°51' E 011°45'814.1
2017-Sep-16 17:28N 36°45' E 011°50'613.9
2017-Sep-16 17:00N 36°39' E 011°53'714.0
2017-Sep-16 16:30N 36°32' E 011°55'714.0
2017-Sep-16 16:00N 36°25' E 011°57'714.0
2017-Sep-16 15:30N 36°19' E 012°00'714.1
2017-Sep-16 15:00N 36°12' E 012°01'713.9
2017-Sep-16 14:30N 36°05' E 012°01'713.7
2017-Sep-16 14:00N 35°58' E 012°02'713.6
2017-Sep-16 13:30N 35°51' E 012°03'713.7
2017-Sep-16 13:00N 35°44' E 012°04'713.9
2017-Sep-16 12:30N 35°37' E 012°04'714.0
2017-Sep-16 12:00N 35°30' E 012°05'714.1
2017-Sep-16 11:30N 35°23' E 012°06'714.1
2017-Sep-16 11:00N 35°16' E 012°07'713.5
2017-Sep-16 10:30N 35°10' E 012°07'713.5
2017-Sep-16 10:00N 35°03' E 012°08'713.5
2017-Sep-16 09:30N 34°56' E 012°09'713.9
2017-Sep-16 09:00N 34°49' E 012°09'612.3
2017-Sep-16 08:30N 34°44' E 012°06'714.2
2017-Sep-16 08:00N 34°41' E 011°58'814.2
2017-Sep-16 07:28N 34°38' E 011°50'813.7
2017-Sep-16 06:52N 34°34' E 011°41'514.1
2017-Sep-16 06:30N 34°32' E 011°35'2214.3
2017-Sep-16 05:00N 34°21' E 011°12'714.0
2017-Sep-16 04:30N 34°20' E 011°04'714.5
2017-Sep-16 04:00N 34°17' E 010°56'714.5
2017-Sep-16 03:30N 34°14' E 010°48'714.3
2017-Sep-16 03:00N 34°11' E 010°40'714.4
2017-Sep-16 02:30N 34°08' E 010°32'714.0
2017-Sep-16 02:01N 34°05' E 010°25'813.9
2017-Sep-16 01:28N 34°08' E 010°16'47 2.4
2017-Sep-15 05:59N 34°22' E 011°11'612.9
2017-Sep-15 05:30N 34°25' E 011°18'813.5
2017-Sep-15 04:55N 34°28' E 011°27'613.4
2017-Sep-15 04:30N 34°30' E 011°33'713.3
2017-Sep-15 04:00N 34°33' E 011°40'713.6
2017-Sep-15 03:30N 34°36' E 011°47'613.1
2017-Sep-15 03:00N 34°39' E 011°54'713.2
2017-Sep-15 02:30N 34°42' E 012°02'612.9
2017-Sep-15 02:00N 34°45' E 012°09'612.9
2017-Sep-15 01:30N 34°51' E 012°08'713.3
2017-Sep-15 01:00N 34°58' E 012°07'713.4
2017-Sep-15 00:30N 35°04' E 012°06'713.4
2017-Sep-15 00:00N 35°11' E 012°05'713.5
2017-Sep-14 23:30N 35°18' E 012°04'713.4
2017-Sep-14 23:00N 35°24' E 012°03'713.3
2017-Sep-14 22:30N 35°31' E 012°01'713.4
2017-Sep-14 22:00N 35°38' E 011°60'713.5
2017-Sep-14 21:30N 35°44' E 011°59'713.5
2017-Sep-14 21:00N 35°51' E 011°58'713.6
2017-Sep-14 20:30N 35°58' E 011°56'713.7
2017-Sep-14 20:00N 36°04' E 011°55'713.5
2017-Sep-14 19:30N 36°11' E 011°53'713.4
2017-Sep-14 19:01N 36°18' E 011°52'713.4
2017-Sep-14 18:30N 36°24' E 011°51'713.5
2017-Sep-14 18:00N 36°31' E 011°50'713.4
2017-Sep-14 17:30N 36°38' E 011°49'713.5
2017-Sep-14 17:00N 36°44' E 011°48'813.2
2017-Sep-14 16:25N 36°52' E 011°47'513.2
2017-Sep-14 16:00N 36°57' E 011°47'261 8.0
2017-Sep-13 07:37N 40°50' E 014°17'0 1.2
2017-Sep-13 07:28N 40°50' E 014°17'2 4.7
2017-Sep-13 06:59N 40°48' E 014°17'5 9.4
2017-Sep-13 06:30N 40°44' E 014°14'510.0
2017-Sep-13 06:00N 40°41' E 014°09'5 9.9
2017-Sep-13 05:30N 40°38' E 014°04'248 9.7
2017-Sep-12 03:51N 43°03' E 009°34'411.0
2017-Sep-12 03:30N 43°06' E 009°33'5 9.7
2017-Sep-12 03:00N 43°11' E 009°32'5 9.6
2017-Sep-12 02:29N 43°16' E 009°30'510.9
2017-Sep-12 02:00N 43°21' E 009°27'611.1
2017-Sep-12 01:30N 43°26' E 009°24'510.9
2017-Sep-12 01:00N 43°31' E 009°22'611.5
2017-Sep-12 00:30N 43°36' E 009°19'612.2
2017-Sep-12 00:00N 43°42' E 009°16'612.4
2017-Sep-11 23:30N 43°48' E 009°13'612.7
2017-Sep-11 23:00N 43°54' E 009°10'612.6
2017-Sep-11 22:30N 44°00' E 009°08'612.8
2017-Sep-11 22:00N 44°06' E 009°05'713.0
2017-Sep-11 21:30N 44°12' E 009°02'612.9
2017-Sep-11 21:00N 44°18' E 008°59'611.2
2017-Sep-11 20:30N 44°24' E 008°56'2 3.0
2017-Sep-11 19:56N 44°24' E 008°54'0 0.0
2017-Sep-11 19:26N 44°24' E 008°54'0 0.0
2017-Sep-11 18:56N 44°24' E 008°54'0 0.0
2017-Sep-11 18:26N 44°24' E 008°54'0 0.0
2017-Sep-11 17:56N 44°24' E 008°54'0 0.0
2017-Sep-11 17:26N 44°24' E 008°54'0 0.0
2017-Sep-11 16:44N 44°24' E 008°54'0 0.0
2017-Sep-11 16:26N 44°24' E 008°54'0 0.0
2017-Sep-11 15:56N 44°24' E 008°54'0 0.0
2017-Sep-11 15:26N 44°24' E 008°54'0 0.0
2017-Sep-11 14:44N 44°24' E 008°54'0 0.0
2017-Sep-11 14:20N 44°24' E 008°54'0 0.0
2017-Sep-11 13:56N 44°24' E 008°54'0 0.0
2017-Sep-11 13:20N 44°24' E 008°54'0 0.0
2017-Sep-11 12:50N 44°24' E 008°54'0 0.0
2017-Sep-11 12:20N 44°24' E 008°54'0 0.0
2017-Sep-11 11:56N 44°24' E 008°54'0 0.0
2017-Sep-11 11:26N 44°24' E 008°54'0 0.0
2017-Sep-11 10:50N 44°24' E 008°54'0 0.0
2017-Sep-11 10:20N 44°24' E 008°54'0 0.0
2017-Sep-11 09:50N 44°24' E 008°54'0 0.0
2017-Sep-11 09:30N 44°24' E 008°54'2 3.9
2017-Sep-11 09:00N 44°23' E 008°56'2 4.3
2017-Sep-11 08:30N 44°22' E 008°58'1 1.2
2017-Sep-11 08:00N 44°21' E 008°59'3 5.2
2017-Sep-11 07:30N 44°19' E 009°01'5 9.1
2017-Sep-11 07:00N 44°17' E 008°56'611.8
2017-Sep-11 06:30N 44°12' E 008°51'612.2
2017-Sep-11 06:00N 44°08' E 008°45'613.0
2017-Sep-11 05:30N 44°03' E 008°38'612.8
2017-Sep-11 05:00N 43°59' E 008°32'612.9
2017-Sep-11 04:30N 43°54' E 008°26'713.0
2017-Sep-11 03:59N 43°50' E 008°19'4213.2
2017-Sep-11 00:46N 43°21' E 007°36'813.8
2017-Sep-11 00:11N 43°16' E 007°27'513.7
2017-Sep-10 23:50N 43°13' E 007°22'513.6
2017-Sep-10 23:28N 43°10' E 007°17'613.7
2017-Sep-10 23:00N 43°06' E 007°10'7211.9
2017-Sep-10 16:56N 42°51' E 005°33'612.6
2017-Sep-10 16:30N 42°53' E 005°26'612.8
2017-Sep-10 16:00N 42°55' E 005°18'612.8
2017-Sep-10 15:30N 42°57' E 005°10'713.1
2017-Sep-10 14:59N 42°60' E 005°01'1613.1
2017-Sep-10 13:45N 43°05' E 004°41'712.9
2017-Sep-10 13:12N 43°08' E 004°32'313.0
2017-Sep-10 12:59N 43°09' E 004°28'813.3
2017-Sep-10 12:25N 43°11' E 004°18'512.9
2017-Sep-10 12:00N 43°11' E 004°11'713.5
2017-Sep-10 11:30N 43°09' E 004°02'713.2
2017-Sep-10 10:59N 43°07' E 003°53'35 0.9
2017-Sep-08 21:41N 42°41' E 004°26'313.7
2017-Sep-08 21:27N 42°44' E 004°29'613.6
2017-Sep-08 21:01N 42°48' E 004°34'713.4
2017-Sep-08 20:31N 42°53' E 004°40'713.1
2017-Sep-08 20:01N 42°58' E 004°46'713.3
2017-Sep-08 19:30N 43°03' E 004°52'  

Dump ship's entire track history